Time;durP1;ratioP1;P1;durP2;ratioP2;P2;SDS_P1;SDS_P2;PMS_P1;PMS_P2;Temp;Humidity;BMP_temperature;BMP_pressure;BME280_temperature;BME280_humidity;BME280_pressure;Samples;Min_cycle;Max_cycle;Signal;HPM_P1;HPM_P2
2023/05/02 00:01:50;;;;;;;;;;;;;;;8.39;85.91;101618.47;5015094;28;19928;-78
2023/05/02 00:04:17;;;;;;;;;;;;;;;8.25;86.38;101617.06;5035353;28;19940;-78
2023/05/02 00:06:45;;;;;;;;;;;;;;;8.29;87.10;101619.03;5028787;28;20453;-77
2023/05/02 00:09:11;;;;;;;;;;;;;;;8.25;87.93;101628.56;5033337;28;19954;-78
2023/05/02 00:11:37;;;;;;;;;;;;;;;8.34;86.87;101627.19;5029872;28;20455;-77
2023/05/02 00:14:03;;;;;;;;;;;;;;;8.51;87.11;101626.50;5018885;28;19918;-78
2023/05/02 00:16:28;;;;;;;;;;;;;;;8.35;87.39;101623.50;5009749;28;20005;-79
2023/05/02 00:18:54;;;;;;;;;;;;;;;8.51;87.47;101624.63;5038405;28;19939;-78
2023/05/02 00:21:19;;;;;;;;;;;;;;;8.58;86.98;101621.84;5032296;28;19945;-77
2023/05/02 00:23:45;;;;;;;;;;;;;;;8.66;87.33;101614.25;5027459;28;19962;-77
2023/05/02 00:26:10;;;;;;;;;;;;;;;8.62;87.74;101620.31;5044745;28;19953;-77
2023/05/02 00:28:40;;;;;;;;;;;;;;;8.81;87.44;101621.81;5024872;28;19949;-76
2023/05/02 00:31:06;;;;;;;;;;;;;;;8.88;87.53;101625.16;5021668;28;19935;-76
2023/05/02 00:33:31;;;;;;;;;;;;;;;8.95;86.88;101622.34;5042406;28;19939;-77
2023/05/02 00:35:57;;;;;;;;;;;;;;;9.11;87.09;101623.44;5012429;28;19950;-76
2023/05/02 00:38:22;;;;;;;;;;;;;;;9.26;86.54;101618.38;5033755;28;20441;-77
2023/05/02 00:40:50;;;;;;;;;;;;;;;9.27;86.85;101620.00;5032613;28;19946;-78
2023/05/02 00:43:16;;;;;;;;;;;;;;;9.33;87.01;101611.03;5030542;28;19936;-77
2023/05/02 00:45:43;;;;;;;;;;;;;;;9.41;86.64;101615.16;5029132;28;20031;-78
2023/05/02 00:48:09;;;;;;;;;;;;;;;9.38;87.33;101616.47;5033202;28;20002;-78
2023/05/02 00:50:39;;;;;;;;;;;;;;;9.38;86.53;101627.16;5029933;28;20100;-80
2023/05/02 00:53:05;;;;;;;;;;;;;;;9.46;86.72;101618.75;5046965;28;19942;-78
2023/05/02 00:55:32;;;;;;;;;;;;;;;9.55;86.73;101613.81;4998634;28;20011;-77
2023/05/02 00:57:59;;;;;;;;;;;;;;;9.52;86.76;101622.31;4996158;28;19958;-78
2023/05/02 01:00:30;;;;;;;;;;;;;;;9.52;86.72;101616.97;5031145;28;20026;-77
2023/05/02 01:03:07;;;;;;;;;;;;;;;9.57;87.04;101609.06;5010465;28;19978;-77
2023/05/02 01:05:39;;;;;;;;;;;;;;;9.61;86.35;101604.00;5041324;28;19939;-77
2023/05/02 01:08:14;;;;;;;;;;;;;;;9.63;85.82;101607.28;5021219;28;19981;-76
2023/05/02 01:10:42;;;;;;;;;;;;;;;9.60;86.20;101602.41;5009147;28;19958;-79
2023/05/02 01:13:11;;;;;;;;;;;;;;;9.57;86.86;101615.22;5017556;28;20335;-77
2023/05/02 01:15:40;;;;;;;;;;;;;;;9.64;86.17;101603.53;5030372;28;20012;-77
2023/05/02 01:18:08;;;;;;;;;;;;;;;9.71;85.81;101605.00;5012214;28;19954;-78
2023/05/02 01:20:37;;;;;;;;;;;;;;;9.67;85.92;101603.06;5002150;28;20024;-78
2023/05/02 01:23:08;;;;;;;;;;;;;;;9.68;85.97;101607.34;5015820;28;20360;-77
2023/05/02 01:25:52;;;;;;;;;;;;;;;9.67;86.35;101603.06;5014479;28;19940;-77
2023/05/02 01:28:33;;;;;;;;;;;;;;;9.78;86.12;101620.91;5029534;28;19939;-77
2023/05/02 01:31:00;;;;;;;;;;;;;;;9.81;85.49;101621.22;5013858;28;19968;-77
2023/05/02 01:33:27;;;;;;;;;;;;;;;9.80;85.37;101618.78;5030533;28;20029;-77
2023/05/02 01:35:53;;;;;;;;;;;;;;;9.82;85.49;101611.31;5031762;28;19977;-78
2023/05/02 01:38:20;;;;;;;;;;;;;;;9.77;85.63;101617.41;5030259;28;19957;-77
2023/05/02 01:40:49;;;;;;;;;;;;;;;9.68;86.60;101610.81;5011746;28;20396;-77
2023/05/02 01:43:15;;;;;;;;;;;;;;;9.67;86.40;101619.91;5038185;28;19972;-76
2023/05/02 01:45:44;;;;;;;;;;;;;;;9.69;86.34;101612.47;5004129;28;20172;-78
2023/05/02 01:48:10;;;;;;;;;;;;;;;9.77;86.41;101617.41;5046615;28;20018;-77
2023/05/02 01:50:37;;;;;;;;;;;;;;;9.72;86.48;101620.00;5010990;28;19932;-77
2023/05/02 01:53:03;;;;;;;;;;;;;;;9.69;86.60;101623.16;5017952;28;20310;-79
2023/05/02 01:55:30;;;;;;;;;;;;;;;9.77;86.12;101629.97;5002252;28;19971;-77
2023/05/02 01:57:56;;;;;;;;;;;;;;;9.68;86.29;101634.09;5034406;28;19959;-77
2023/05/02 02:00:24;;;;;;;;;;;;;;;9.62;86.67;101641.25;5026108;28;19939;-78
2023/05/02 02:02:51;;;;;;;;;;;;;;;9.62;87.21;101637.72;4996896;28;20365;-79
2023/05/02 02:05:18;;;;;;;;;;;;;;;9.68;86.91;101639.44;5051060;28;19982;-79
2023/05/02 02:07:43;;;;;;;;;;;;;;;9.55;87.29;101638.72;5022800;28;19934;-76
2023/05/02 02:10:09;;;;;;;;;;;;;;;9.53;87.90;101631.97;5034019;28;19930;-77
2023/05/02 02:12:38;;;;;;;;;;;;;;;9.54;87.75;101637.06;5024215;28;19931;-76
2023/05/02 02:15:10;;;;;;;;;;;;;;;9.49;88.07;101638.88;5031378;28;20462;-78
2023/05/02 02:17:36;;;;;;;;;;;;;;;9.48;87.86;101648.75;5030987;28;20287;-78
2023/05/02 02:20:06;;;;;;;;;;;;;;;9.50;87.94;101641.28;5031010;28;20031;-77
2023/05/02 02:22:33;;;;;;;;;;;;;;;9.47;87.97;101647.09;5037204;28;20040;-77
2023/05/02 02:25:00;;;;;;;;;;;;;;;9.53;88.00;101651.50;5016426;28;19992;-78
2023/05/02 02:27:25;;;;;;;;;;;;;;;9.46;88.45;101650.84;5035832;28;19950;-78
2023/05/02 02:29:51;;;;;;;;;;;;;;;9.51;87.60;101652.78;5035564;28;19937;-77
2023/05/02 02:32:17;;;;;;;;;;;;;;;9.52;88.46;101654.41;5032352;28;19942;-77
2023/05/02 02:34:42;;;;;;;;;;;;;;;9.40;88.67;101659.81;5026567;28;20024;-77
2023/05/02 02:37:18;;;;;;;;;;;;;;;9.47;88.92;101663.16;5033616;28;19990;-78
2023/05/02 02:39:46;;;;;;;;;;;;;;;9.41;89.04;101658.75;5033306;28;20412;-78
2023/05/02 02:42:24;;;;;;;;;;;;;;;9.44;89.37;101663.63;5016712;28;19931;-79
2023/05/02 02:45:04;;;;;;;;;;;;;;;9.48;89.38;101670.16;5020745;28;20305;-77
2023/05/02 02:47:42;;;;;;;;;;;;;;;9.46;89.93;101672.22;5029211;28;19955;-77
2023/05/02 02:50:12;;;;;;;;;;;;;;;9.44;89.76;101674.34;5029178;28;19932;-77
2023/05/02 02:52:47;;;;;;;;;;;;;;;9.40;89.81;101680.38;5027919;28;20124;-77
2023/05/02 02:55:18;;;;;;;;;;;;;;;9.31;90.67;101682.63;5044213;28;19935;-76
2023/05/02 02:57:57;;;;;;;;;;;;;;;9.30;90.25;101689.03;5030882;28;20045;-76
2023/05/02 03:00:24;;;;;;;;;;;;;;;9.30;90.02;101703.22;5032559;28;19963;-78
2023/05/02 03:02:52;;;;;;;;;;;;;;;9.35;89.75;101707.00;5030152;28;19941;-78
2023/05/02 03:05:20;;;;;;;;;;;;;;;9.25;90.11;101704.97;5030423;28;20034;-77
2023/05/02 03:07:45;;;;;;;;;;;;;;;9.19;89.75;101709.38;5008480;28;20022;-77
2023/05/02 03:10:11;;;;;;;;;;;;;;;9.11;89.25;101725.00;5029255;28;20359;-78
2023/05/02 03:12:38;;;;;;;;;;;;;;;8.96;89.10;101739.66;5026615;28;19943;-78
2023/05/02 03:15:04;;;;;;;;;;;;;;;8.83;89.56;101747.91;5024930;28;19951;-77
2023/05/02 03:17:30;;;;;;;;;;;;;;;8.75;89.80;101748.28;5018769;28;19952;-78
2023/05/02 03:19:56;;;;;;;;;;;;;;;8.67;90.50;101748.59;5031514;28;20354;-78
2023/05/02 03:22:21;;;;;;;;;;;;;;;8.67;90.23;101760.13;5022695;28;19937;-78
2023/05/02 03:24:47;;;;;;;;;;;;;;;8.51;89.27;101770.66;5001996;28;20402;-77
2023/05/02 03:27:13;;;;;;;;;;;;;;;8.40;89.54;101781.09;5034912;28;20003;-77
2023/05/02 03:29:40;;;;;;;;;;;;;;;8.33;89.70;101785.69;5012373;28;20392;-78
2023/05/02 03:32:06;;;;;;;;;;;;;;;8.15;89.08;101788.44;5025018;28;19954;-78
2023/05/02 03:34:33;;;;;;;;;;;;;;;8.00;87.54;101796.03;5017666;28;19957;-77
2023/05/02 03:36:59;;;;;;;;;;;;;;;7.85;87.88;101794.56;5044267;28;19958;-77
2023/05/02 03:39:25;;;;;;;;;;;;;;;7.72;87.94;101800.06;5033632;28;19933;-77
2023/05/02 03:41:51;;;;;;;;;;;;;;;7.73;88.18;101807.06;5021341;28;20060;-79
2023/05/02 03:44:20;;;;;;;;;;;;;;;7.72;89.13;101816.06;5027923;28;19936;-78
2023/05/02 03:46:46;;;;;;;;;;;;;;;7.66;85.80;101830.31;5024385;28;20017;-77
2023/05/02 03:49:12;;;;;;;;;;;;;;;7.42;85.93;101832.00;5029719;28;19995;-78
2023/05/02 03:51:40;;;;;;;;;;;;;;;7.27;87.21;101831.56;4994248;28;19962;-78
2023/05/02 03:54:08;;;;;;;;;;;;;;;7.28;88.01;101836.66;5014771;28;19983;-78
2023/05/02 03:56:36;;;;;;;;;;;;;;;7.16;87.49;101838.41;5031924;28;19955;-77
2023/05/02 03:59:13;;;;;;;;;;;;;;;6.88;85.27;101846.88;5018927;28;19931;-78
2023/05/02 04:01:40;;;;;;;;;;;;;;;6.76;85.16;101852.09;5012662;28;19955;-77
2023/05/02 04:04:07;;;;;;;;;;;;;;;6.70;85.79;101860.94;5010423;28;19964;-78
2023/05/02 04:06:37;;;;;;;;;;;;;;;6.67;85.10;101858.72;5032534;28;19918;-78
2023/05/02 04:09:05;;;;;;;;;;;;;;;6.70;85.49;101863.59;5018548;28;20346;-79
2023/05/02 04:11:38;;;;;;;;;;;;;;;6.76;85.26;101865.41;5018860;28;20028;-78
2023/05/02 04:14:05;;;;;;;;;;;;;;;6.79;86.86;101878.28;5027855;28;19947;-78
2023/05/02 04:16:31;;;;;;;;;;;;;;;6.89;85.21;101869.00;5029892;28;19955;-78
2023/05/02 04:18:56;;;;;;;;;;;;;;;6.84;83.44;101883.78;5011247;28;20417;-78
2023/05/02 04:21:23;;;;;;;;;;;;;;;6.81;84.97;101883.41;5033868;28;20005;-78
2023/05/02 04:23:49;;;;;;;;;;;;;;;6.80;83.51;101887.09;5049532;28;20450;-78
2023/05/02 04:26:15;;;;;;;;;;;;;;;6.86;83.50;101896.06;5022980;28;20414;-78
2023/05/02 04:29:07;;;;;;;;;;;;;;;6.93;79.17;101897.66;5031863;28;19935;-78
2023/05/02 04:31:33;;;;;;;;;;;;;;;6.96;78.99;101912.38;5018663;28;19925;-78
2023/05/02 04:33:59;;;;;;;;;;;;;;;6.87;79.06;101919.00;5016840;28;20515;-77
2023/05/02 04:36:29;;;;;;;;;;;;;;;6.85;75.20;101916.56;5029339;28;20045;-77
2023/05/02 04:38:54;;;;;;;;;;;;;;;6.89;77.04;101922.25;5031778;28;20398;-77
2023/05/02 04:41:22;;;;;;;;;;;;;;;6.96;79.55;101928.34;5028213;28;20485;-77
2023/05/02 04:43:53;;;;;;;;;;;;;;;6.90;78.92;101934.53;5033702;28;20762;-78
2023/05/02 04:46:19;;;;;;;;;;;;;;;6.90;78.09;101940.66;5017419;28;19948;-78
2023/05/02 04:48:44;;;;;;;;;;;;;;;6.99;77.13;101954.56;5052666;28;19931;-78
2023/05/02 04:51:10;;;;;;;;;;;;;;;6.99;77.24;101959.88;5041798;28;20393;-78
2023/05/02 04:53:36;;;;;;;;;;;;;;;6.95;77.97;101956.81;5018268;28;19940;-78
2023/05/02 04:56:03;;;;;;;;;;;;;;;7.06;78.43;101960.66;5037589;28;19951;-78
2023/05/02 04:58:31;;;;;;;;;;;;;;;7.01;77.01;101968.47;5033484;28;20014;-78
2023/05/02 05:01:01;;;;;;;;;;;;;;;7.00;74.98;101962.34;5015366;28;19966;-78
2023/05/02 05:03:29;;;;;;;;;;;;;;;7.00;75.04;101977.50;5047341;28;19933;-79
2023/05/02 05:05:55;;;;;;;;;;;;;;;7.02;76.90;101976.25;5010581;28;19956;-78
2023/05/02 05:08:22;;;;;;;;;;;;;;;7.08;76.66;101979.91;5028326;28;19935;-78
2023/05/02 05:10:47;;;;;;;;;;;;;;;7.12;74.35;101981.09;5030811;28;19949;-79
2023/05/02 05:13:13;;;;;;;;;;;;;;;6.99;73.78;101978.53;5031521;28;19989;-79
2023/05/02 05:15:40;;;;;;;;;;;;;;;7.01;72.15;101984.44;5013382;28;19954;-77
2023/05/02 05:18:06;;;;;;;;;;;;;;;6.90;72.93;101993.13;5016689;28;19963;-78
2023/05/02 05:20:32;;;;;;;;;;;;;;;6.95;72.66;101993.31;5036629;28;19943;-79
2023/05/02 05:22:59;;;;;;;;;;;;;;;7.07;73.16;102003.06;5034894;28;19962;-77
2023/05/02 05:25:26;;;;;;;;;;;;;;;7.10;72.42;102009.78;5040629;28;20347;-77
2023/05/02 05:27:56;;;;;;;;;;;;;;;7.00;72.64;102009.47;5033254;28;19942;-78
2023/05/02 05:30:23;;;;;;;;;;;;;;;6.99;72.68;101999.84;5057945;28;19921;-78
2023/05/02 05:32:49;;;;;;;;;;;;;;;7.02;71.47;102012.72;5029933;28;19954;-77
2023/05/02 05:35:17;;;;;;;;;;;;;;;6.92;71.40;102015.03;5017729;28;19970;-78
2023/05/02 05:37:44;;;;;;;;;;;;;;;6.93;71.73;102017.50;5041599;28;19953;-77
2023/05/02 05:40:12;;;;;;;;;;;;;;;6.88;73.05;102024.47;5040002;28;20419;-77
2023/05/02 05:42:41;;;;;;;;;;;;;;;6.83;71.42;102031.25;5048748;28;19943;-77
2023/05/02 05:45:13;;;;;;;;;;;;;;;6.81;69.73;102037.81;5036951;28;19942;-78
2023/05/02 05:47:39;;;;;;;;;;;;;;;6.84;70.54;102040.91;5033533;28;20046;-78
2023/05/02 05:50:06;;;;;;;;;;;;;;;6.87;70.21;102044.16;5026658;28;19942;-77
2023/05/02 05:52:31;;;;;;;;;;;;;;;6.78;71.72;102047.06;5054950;28;19936;-77
2023/05/02 05:54:59;;;;;;;;;;;;;;;6.82;72.42;102045.59;5035021;28;20408;-78
2023/05/02 05:57:27;;;;;;;;;;;;;;;6.81;71.69;102041.31;5034586;28;19956;-78
2023/05/02 05:59:53;;;;;;;;;;;;;;;6.87;73.50;102054.81;5015254;28;19942;-78
2023/05/02 06:02:20;;;;;;;;;;;;;;;6.90;75.29;102057.84;5035126;28;19941;-78
2023/05/02 06:04:46;;;;;;;;;;;;;;;6.91;72.88;102064.00;5020650;28;19934;-78
2023/05/02 06:07:13;;;;;;;;;;;;;;;6.87;73.33;102071.59;5036323;28;19957;-77
2023/05/02 06:09:38;;;;;;;;;;;;;;;6.89;73.76;102074.84;5042977;28;19942;-78
2023/05/02 06:12:04;;;;;;;;;;;;;;;6.95;73.74;102073.19;5018531;28;19959;-78
2023/05/02 06:14:33;;;;;;;;;;;;;;;6.83;73.05;102081.84;5017220;28;20305;-78
2023/05/02 06:16:59;;;;;;;;;;;;;;;6.79;70.49;102093.16;5023097;28;19966;-78
2023/05/02 06:19:26;;;;;;;;;;;;;;;6.85;72.64;102086.97;5013788;28;19934;-77
2023/05/02 06:21:52;;;;;;;;;;;;;;;6.84;74.62;102096.81;5040375;28;20658;-77
2023/05/02 06:24:17;;;;;;;;;;;;;;;6.92;73.25;102108.25;5027487;28;19940;-77
2023/05/02 06:26:43;;;;;;;;;;;;;;;6.86;71.99;102109.91;5033930;28;19950;-78
2023/05/02 06:29:09;;;;;;;;;;;;;;;6.99;70.10;102109.03;5032296;28;19941;-77
2023/05/02 06:31:34;;;;;;;;;;;;;;;6.92;68.96;102111.75;5036865;28;20012;-77
2023/05/02 06:34:00;;;;;;;;;;;;;;;7.18;66.87;102112.63;5033851;28;20362;-78
2023/05/02 06:36:26;;;;;;;;;;;;;;;7.19;66.24;102120.41;5010966;28;20465;-78
2023/05/02 06:38:51;;;;;;;;;;;;;;;7.15;68.44;102127.19;5030308;28;19953;-78
2023/05/02 06:41:19;;;;;;;;;;;;;;;7.17;67.41;102130.44;5036672;28;19940;-77
2023/05/02 06:43:45;;;;;;;;;;;;;;;7.18;67.39;102128.59;5032407;28;19938;-79
2023/05/02 06:46:11;;;;;;;;;;;;;;;7.21;67.78;102139.66;5031027;28;19963;-78
2023/05/02 06:48:36;;;;;;;;;;;;;;;7.17;69.71;102143.78;5035692;28;19934;-78
2023/05/02 06:51:03;;;;;;;;;;;;;;;7.23;69.12;102148.25;5034497;28;19986;-78
2023/05/02 06:53:28;;;;;;;;;;;;;;;7.22;68.49;102156.47;5036609;28;19944;-79
2023/05/02 06:55:54;;;;;;;;;;;;;;;7.23;70.43;102160.75;5020214;28;19958;-78
2023/05/02 06:58:20;;;;;;;;;;;;;;;7.16;66.89;102155.47;5030021;28;19952;-78
2023/05/02 07:00:47;;;;;;;;;;;;;;;7.15;66.27;102161.81;5027247;28;19935;-78
2023/05/02 07:03:13;;;;;;;;;;;;;;;7.15;64.68;102167.16;5031957;28;20484;-77
2023/05/02 07:05:38;;;;;;;;;;;;;;;7.34;64.51;102171.56;5042745;28;19936;-77
2023/05/02 07:08:04;;;;;;;;;;;;;;;7.39;65.05;102179.75;5023180;28;19943;-78
2023/05/02 07:10:30;;;;;;;;;;;;;;;7.69;68.27;102179.16;5014655;28;19937;-78
2023/05/02 07:12:55;;;;;;;;;;;;;;;7.51;66.98;102181.72;5033629;28;19934;-78
2023/05/02 07:15:21;;;;;;;;;;;;;;;7.65;66.75;102184.13;5024517;28;19937;-78
2023/05/02 07:17:47;;;;;;;;;;;;;;;7.65;65.66;102191.28;5035500;28;19953;-78
2023/05/02 07:20:13;;;;;;;;;;;;;;;7.63;62.20;102185.34;5031405;28;19936;-78
2023/05/02 07:22:39;;;;;;;;;;;;;;;7.78;63.31;102191.19;5038547;28;19929;-78
2023/05/02 07:25:04;;;;;;;;;;;;;;;7.96;66.21;102189.66;5019238;28;20342;-77
2023/05/02 07:27:30;;;;;;;;;;;;;;;7.75;64.09;102191.63;5042745;28;20016;-77
2023/05/02 07:29:56;;;;;;;;;;;;;;;7.92;61.37;102200.78;5035156;28;20422;-77
2023/05/02 07:32:23;;;;;;;;;;;;;;;8.08;57.27;102194.06;5041787;28;19941;-78
2023/05/02 07:34:52;;;;;;;;;;;;;;;7.99;58.47;102194.53;5039822;28;19961;-78
2023/05/02 07:37:20;;;;;;;;;;;;;;;8.10;59.02;102207.19;5051666;28;19980;-80
2023/05/02 07:39:49;;;;;;;;;;;;;;;8.41;60.84;102209.84;5051332;28;19936;-78
2023/05/02 07:42:15;;;;;;;;;;;;;;;8.58;59.16;102211.94;5035272;28;19932;-80
2023/05/02 07:44:40;;;;;;;;;;;;;;;8.53;59.17;102211.78;5023097;28;19935;-80
2023/05/02 07:47:07;;;;;;;;;;;;;;;8.82;58.57;102216.44;5035457;28;19958;-79
2023/05/02 07:49:32;;;;;;;;;;;;;;;8.93;53.87;102210.34;5038301;28;19929;-78
2023/05/02 07:51:58;;;;;;;;;;;;;;;9.09;54.71;102227.66;5040568;28;19936;-79
2023/05/02 07:54:25;;;;;;;;;;;;;;;8.89;55.89;102211.84;5040763;28;19988;-78
2023/05/02 07:56:50;;;;;;;;;;;;;;;8.82;55.65;102212.94;5036858;28;20000;-78
2023/05/02 07:59:16;;;;;;;;;;;;;;;9.10;54.08;102217.78;5039610;28;19934;-77
2023/05/02 08:01:41;;;;;;;;;;;;;;;8.81;55.86;102236.16;5024334;28;19935;-77
2023/05/02 08:04:09;;;;;;;;;;;;;;;8.77;55.24;102229.63;5041445;28;19974;-78
2023/05/02 08:06:35;;;;;;;;;;;;;;;9.13;56.35;102242.19;5041140;28;19998;-79
2023/05/02 08:09:01;;;;;;;;;;;;;;;9.14;55.83;102240.31;5032236;28;19985;-80
2023/05/02 08:11:26;;;;;;;;;;;;;;;9.23;55.46;102252.38;5037720;28;20026;-77
2023/05/02 08:13:52;;;;;;;;;;;;;;;9.06;56.08;102253.97;5020228;28;20016;-77
2023/05/02 08:16:18;;;;;;;;;;;;;;;9.14;53.68;102251.00;5017855;28;20046;-78
2023/05/02 08:18:43;;;;;;;;;;;;;;;9.08;54.89;102246.56;5044784;28;19967;-80
2023/05/02 08:21:09;;;;;;;;;;;;;;;9.26;54.88;102252.72;5046119;28;19981;-79
2023/05/02 08:23:51;;;;;;;;;;;;;;;8.99;55.86;102248.72;5049595;28;19935;-76
2023/05/02 08:26:17;;;;;;;;;;;;;;;9.48;56.02;102262.94;5033980;28;19970;-76
2023/05/02 08:28:44;;;;;;;;;;;;;;;9.24;54.03;102268.16;5015805;28;19982;-75
2023/05/02 08:31:10;;;;;;;;;;;;;;;9.78;54.23;102271.00;5041810;28;19941;-76
2023/05/02 08:33:35;;;;;;;;;;;;;;;9.88;52.93;102276.59;5038098;28;19944;-76
2023/05/02 08:36:09;;;;;;;;;;;;;;;10.00;54.58;102272.13;5028942;28;20058;-75
2023/05/02 08:38:34;;;;;;;;;;;;;;;9.75;54.86;102279.47;5030969;28;19964;-75
2023/05/02 08:41:00;;;;;;;;;;;;;;;10.32;52.45;102279.91;5039522;28;20392;-76
2023/05/02 08:43:26;;;;;;;;;;;;;;;9.95;52.08;102274.66;5031460;28;20077;-75
2023/05/02 08:45:53;;;;;;;;;;;;;;;9.92;53.12;102282.34;5023544;28;20439;-75
2023/05/02 08:48:19;;;;;;;;;;;;;;;10.27;50.48;102277.91;5026627;28;19945;-75
2023/05/02 08:50:47;;;;;;;;;;;;;;;10.32;53.43;102277.25;5032547;28;19937;-76
2023/05/02 08:53:13;;;;;;;;;;;;;;;10.33;52.25;102278.88;5044508;28;20002;-75
2023/05/02 08:55:40;;;;;;;;;;;;;;;10.16;51.27;102285.88;5015727;28;19973;-75
2023/05/02 08:58:06;;;;;;;;;;;;;;;10.18;53.81;102294.53;5028866;28;19961;-77
2023/05/02 09:00:32;;;;;;;;;;;;;;;9.93;51.29;102303.50;5029558;28;19932;-75
2023/05/02 09:03:05;;;;;;;;;;;;;;;9.91;51.99;102305.59;5055982;28;19934;-77
2023/05/02 09:05:32;;;;;;;;;;;;;;;10.27;51.65;102302.03;5031578;28;20499;-76
2023/05/02 09:07:58;;;;;;;;;;;;;;;9.84;51.14;102310.22;5030415;28;19938;-77
2023/05/02 09:10:25;;;;;;;;;;;;;;;10.00;51.72;102309.59;5045992;28;19942;-77
2023/05/02 09:12:50;;;;;;;;;;;;;;;10.18;53.54;102321.28;5027375;28;20027;-77
2023/05/02 09:15:16;;;;;;;;;;;;;;;10.23;52.75;102324.97;5020534;28;20062;-76
2023/05/02 09:17:42;;;;;;;;;;;;;;;9.98;51.28;102313.53;5032974;28;20066;-78
2023/05/02 09:20:09;;;;;;;;;;;;;;;10.24;51.28;102321.22;5044085;28;19923;-78
2023/05/02 09:22:38;;;;;;;;;;;;;;;10.35;50.62;102307.03;5042726;28;19936;-76
2023/05/02 09:25:07;;;;;;;;;;;;;;;10.93;50.28;102318.88;5017299;28;19937;-76
2023/05/02 09:27:50;;;;;;;;;;;;;;;10.62;49.45;102326.19;5031567;28;19955;-76
2023/05/02 09:30:24;;;;;;;;;;;;;;;10.54;48.19;102321.16;5052111;28;20061;-77
2023/05/02 09:32:50;;;;;;;;;;;;;;;11.03;50.05;102329.00;5032007;28;19974;-77
2023/05/02 09:35:22;;;;;;;;;;;;;;;10.19;47.71;102323.75;5027352;28;19936;-76
2023/05/02 09:37:49;;;;;;;;;;;;;;;9.98;50.95;102327.75;5029845;28;20063;-76
2023/05/02 09:40:15;;;;;;;;;;;;;;;10.87;50.30;102322.50;5035083;28;20388;-78
2023/05/02 09:42:40;;;;;;;;;;;;;;;12.05;46.53;102323.88;5029071;28;19933;-77
2023/05/02 09:45:06;;;;;;;;;;;;;;;12.03;44.60;102328.69;5046170;28;19942;-76
2023/05/02 09:47:32;;;;;;;;;;;;;;;12.45;47.62;102336.41;5051446;28;20024;-76
2023/05/02 09:49:57;;;;;;;;;;;;;;;11.95;46.74;102337.13;5032561;28;19969;-76
2023/05/02 09:52:23;;;;;;;;;;;;;;;12.50;46.14;102344.56;5032188;28;19959;-77
2023/05/02 09:54:50;;;;;;;;;;;;;;;11.89;45.34;102338.91;5029893;28;19935;-77
2023/05/02 09:57:16;;;;;;;;;;;;;;;11.82;46.84;102340.09;5042137;28;19962;-77
2023/05/02 09:59:52;;;;;;;;;;;;;;;11.60;45.32;102340.72;5047189;28;19936;-77
2023/05/02 10:02:18;;;;;;;;;;;;;;;11.36;48.23;102344.47;5026435;28;19953;-76
2023/05/02 10:04:46;;;;;;;;;;;;;;;12.33;47.05;102343.69;5026271;28;19942;-77
2023/05/02 10:07:12;;;;;;;;;;;;;;;12.72;46.06;102337.38;5028454;28;20075;-76
2023/05/02 10:09:41;;;;;;;;;;;;;;;13.32;42.48;102346.63;5030795;28;19946;-76
2023/05/02 10:12:07;;;;;;;;;;;;;;;13.66;42.91;102341.94;5027291;28;19933;-75
2023/05/02 10:14:38;;;;;;;;;;;;;;;12.94;44.48;102333.94;5044495;28;20372;-75
2023/05/02 10:17:09;;;;;;;;;;;;;;;12.70;46.20;102338.69;5024996;28;20437;-76
2023/05/02 10:19:38;;;;;;;;;;;;;;;13.06;45.89;102353.47;5025573;28;19968;-77
2023/05/02 10:22:05;;;;;;;;;;;;;;;12.82;47.51;102347.50;5037414;28;19933;-75
2023/05/02 10:24:33;;;;;;;;;;;;;;;13.25;47.48;102352.19;5030320;28;20054;-76
2023/05/02 10:26:59;;;;;;;;;;;;;;;13.02;46.21;102355.88;5026113;28;20551;-77
2023/05/02 10:29:28;;;;;;;;;;;;;;;13.48;45.12;102361.09;5032615;28;19940;-76
2023/05/02 10:31:55;;;;;;;;;;;;;;;13.38;43.59;102357.22;5033229;28;19948;-77
2023/05/02 10:34:21;;;;;;;;;;;;;;;12.95;45.80;102367.88;5028746;28;20023;-76
2023/05/02 10:36:46;;;;;;;;;;;;;;;12.54;46.59;102372.59;5035202;28;19974;-76
2023/05/02 10:39:12;;;;;;;;;;;;;;;12.71;44.55;102375.25;5047675;28;19948;-76
2023/05/02 10:41:39;;;;;;;;;;;;;;;12.44;45.68;102362.47;5032782;28;19940;-77
2023/05/02 10:44:07;;;;;;;;;;;;;;;12.00;43.70;102369.44;5033792;28;19974;-76
2023/05/02 10:46:40;;;;;;;;;;;;;;;12.09;45.14;102376.06;5040454;28;20112;-76
2023/05/02 10:49:07;;;;;;;;;;;;;;;12.77;46.02;102372.41;5058481;28;20419;-77
2023/05/02 10:51:35;;;;;;;;;;;;;;;11.98;45.08;102358.13;5004060;28;19944;-78
2023/05/02 10:54:15;;;;;;;;;;;;;;;12.41;48.95;102383.63;5045965;28;20036;-80
2023/05/02 10:57:06;;;;;;;;;;;;;;;12.62;48.42;102390.19;5045226;28;19953;-77
2023/05/02 10:59:33;;;;;;;;;;;;;;;12.21;48.01;102390.25;5026346;28;20419;-77
2023/05/02 11:02:00;;;;;;;;;;;;;;;12.40;49.26;102382.00;5034041;28;20680;-78
2023/05/02 11:04:45;;;;;;;;;;;;;;;12.38;49.51;102387.59;5030968;28;20184;-77
2023/05/02 11:07:17;;;;;;;;;;;;;;;12.44;49.08;102388.50;5030130;28;19960;-77
2023/05/02 11:09:43;;;;;;;;;;;;;;;12.32;48.76;102391.25;5041128;28;19932;-78
2023/05/02 11:12:08;;;;;;;;;;;;;;;12.73;47.54;102382.00;5028813;28;20595;-77
2023/05/02 11:14:37;;;;;;;;;;;;;;;13.19;45.04;102380.03;5030769;28;20413;-77
2023/05/02 11:17:03;;;;;;;;;;;;;;;13.09;45.18;102385.28;5038448;28;19952;-78
2023/05/02 11:19:30;;;;;;;;;;;;;;;13.02;48.12;102387.34;5030418;28;20592;-78
2023/05/02 11:22:14;;;;;;;;;;;;;;;12.33;48.20;102384.00;5036763;28;19985;-78
2023/05/02 11:24:41;;;;;;;;;;;;;;;12.23;48.82;102395.38;5033875;28;19934;-78
2023/05/02 11:27:25;;;;;;;;;;;;;;;11.80;51.15;102387.81;5038418;28;19949;-77
2023/05/02 11:29:51;;;;;;;;;;;;;;;12.00;50.76;102394.44;5033794;28;19935;-78
2023/05/02 11:32:16;;;;;;;;;;;;;;;12.19;48.90;102400.44;5032449;28;20014;-77
2023/05/02 11:34:43;;;;;;;;;;;;;;;12.05;49.43;102404.44;5031102;28;20021;-77
2023/05/02 11:37:12;;;;;;;;;;;;;;;12.12;49.23;102407.78;5047090;28;19959;-78
2023/05/02 11:39:37;;;;;;;;;;;;;;;11.89;51.04;102415.94;5032999;28;19934;-77
2023/05/02 11:42:04;;;;;;;;;;;;;;;11.63;53.22;102417.22;5032261;28;20522;-77
2023/05/02 11:44:29;;;;;;;;;;;;;;;11.73;51.49;102426.34;5037075;28;19939;-77
2023/05/02 11:46:55;;;;;;;;;;;;;;;11.31;52.57;102432.88;5031155;28;20551;-77
2023/05/02 11:49:21;;;;;;;;;;;;;;;11.10;52.03;102426.22;5030176;28;19938;-78
2023/05/02 11:51:46;;;;;;;;;;;;;;;11.26;52.57;102424.72;5032397;28;19928;-77
2023/05/02 11:54:17;;;;;;;;;;;;;;;11.71;52.41;102433.78;5033371;28;20387;-77
2023/05/02 11:56:43;;;;;;;;;;;;;;;12.01;51.37;102438.22;5029743;28;19943;-77
2023/05/02 11:59:08;;;;;;;;;;;;;;;12.30;50.94;102436.34;5029139;28;19989;-77
2023/05/02 12:01:33;;;;;;;;;;;;;;;12.33;51.66;102437.72;5048002;28;20000;-78
2023/05/02 12:04:03;;;;;;;;;;;;;;;12.10;50.44;102441.31;5025208;28;19940;-78
2023/05/02 12:06:28;;;;;;;;;;;;;;;12.21;48.03;102446.66;5048329;28;19994;-77
2023/05/02 12:09:05;;;;;;;;;;;;;;;12.66;49.10;102437.81;5034962;28;19984;-77
2023/05/02 12:11:30;;;;;;;;;;;;;;;13.32;48.33;102438.91;5043834;28;19940;-77
2023/05/02 12:13:56;;;;;;;;;;;;;;;13.38;44.88;102446.00;5033184;28;19961;-77
2023/05/02 12:16:22;;;;;;;;;;;;;;;13.11;47.35;102445.03;5009290;28;19950;-78
2023/05/02 12:18:48;;;;;;;;;;;;;;;13.52;44.99;102453.75;5010598;28;20341;-76
2023/05/02 12:21:13;;;;;;;;;;;;;;;13.98;47.15;102446.28;5036734;28;19939;-79
2023/05/02 12:23:40;;;;;;;;;;;;;;;14.73;40.87;102450.88;5024827;28;19927;-78
2023/05/02 12:26:16;;;;;;;;;;;;;;;14.99;42.97;102441.13;5029581;28;19965;-79
2023/05/02 12:28:49;;;;;;;;;;;;;;;14.25;43.21;102452.53;5040963;28;19935;-77
2023/05/02 12:31:15;;;;;;;;;;;;;;;12.76;46.54;102445.25;5046798;28;19941;-78
2023/05/02 12:33:42;;;;;;;;;;;;;;;12.38;48.52;102465.50;5040589;28;19937;-78
2023/05/02 12:36:08;;;;;;;;;;;;;;;12.05;48.27;102450.09;5030931;28;19956;-78
2023/05/02 12:38:34;;;;;;;;;;;;;;;13.18;48.34;102464.50;5031669;28;19962;-78
2023/05/02 12:41:00;;;;;;;;;;;;;;;14.35;43.72;102474.19;5035047;28;19976;-78
2023/05/02 12:43:25;;;;;;;;;;;;;;;13.57;43.75;102465.41;5025317;28;19975;-78
2023/05/02 12:46:07;;;;;;;;;;;;;;;14.61;43.68;102469.91;5026701;28;19946;-78